Time,TemperatureF,DewpointF,PressureIn,WindDirection,WindDirectionDegrees,WindSpeedMPH,WindSpeedGustMPH,Humidity,HourlyPrecipIn,Conditions,Clouds,dailyrainin,SolarRadiationWatts/m^2,SoftwareType,DateUTC
2013-05-25 00:02:00,78.7,74.0,30.08,WNW,288,0.0,1.0,85,0.00,,,0.00,0,weatherlink.com 1.10,2013-05-25 04:02:00,
2013-05-25 00:17:00,78.5,74.0,30.07,WNW,288,0.0,0.0,85,0.00,,,0.00,0,weatherlink.com 1.10,2013-05-25 04:17:00,
2013-05-25 00:32:00,78.3,74.0,30.08,WNW,288,0.0,0.0,86,0.00,,,0.00,0,weatherlink.com 1.10,2013-05-25 04:32:00,
2013-05-25 00:47:00,78.0,74.0,30.08,WNW,288,0.0,1.0,87,0.00,,,0.00,0,weatherlink.com 1.10,2013-05-25 04:47:00,
2013-05-25 01:02:00,77.7,74.0,30.08,WNW,288,0.0,0.0,87,0.00,,,0.00,0,weatherlink.com 1.10,2013-05-25 05:02:00,
2013-05-25 01:17:00,77.1,73.0,30.08,WNW,288,0.0,0.0,87,0.00,,,0.00,0,weatherlink.com 1.10,2013-05-25 05:17:00,
2013-05-25 01:32:00,76.7,73.0,30.07,WNW,288,0.0,0.0,88,0.00,,,0.00,0,weatherlink.com 1.10,2013-05-25 05:32:00,
2013-05-25 01:47:00,76.0,72.0,30.06,WNW,288,0.0,0.0,88,0.00,,,0.00,0,weatherlink.com 1.10,2013-05-25 05:47:00,
2013-05-25 02:02:00,75.6,73.0,30.07,WNW,288,0.0,0.0,90,0.00,,,0.00,0,weatherlink.com 1.10,2013-05-25 06:02:00,
2013-05-25 02:17:00,75.3,72.0,30.07,WNW,288,0.0,1.0,90,0.00,,,0.00,0,weatherlink.com 1.10,2013-05-25 06:17:00,
2013-05-25 02:32:00,75.2,72.0,30.06,WNW,288,0.0,0.0,89,0.00,,,0.00,0,weatherlink.com 1.10,2013-05-25 06:32:00,
2013-05-25 02:47:00,75.1,71.0,30.06,NE,40,0.0,3.0,88,0.00,,,0.00,0,weatherlink.com 1.10,2013-05-25 06:47:00,
2013-05-25 03:02:00,75.3,71.0,30.06,NE,41,0.0,2.0,87,0.00,,,0.00,0,weatherlink.com 1.10,2013-05-25 07:02:00,
2013-05-25 03:17:00,75.4,71.0,30.06,NE,38,0.0,2.0,85,0.00,,,0.00,0,weatherlink.com 1.10,2013-05-25 07:17:00,
2013-05-25 03:32:00,75.3,71.0,30.06,NE,38,0.0,1.0,85,0.00,,,0.00,0,weatherlink.com 1.10,2013-05-25 07:32:00,
2013-05-25 03:47:00,74.9,71.0,30.05,NE,38,0.0,0.0,86,0.00,,,0.00,0,weatherlink.com 1.10,2013-05-25 07:47:00,
2013-05-25 04:02:00,74.4,70.0,30.05,NE,38,0.0,0.0,86,0.00,,,0.00,0,weatherlink.com 1.10,2013-05-25 08:02:00,
2013-05-25 04:18:00,73.9,70.0,30.06,NE,38,0.0,0.0,88,0.00,,,0.00,0,weatherlink.com 1.10,2013-05-25 08:18:00,
2013-05-25 04:33:00,73.7,70.0,30.06,NE,38,0.0,0.0,89,0.00,,,0.00,0,weatherlink.com 1.10,2013-05-25 08:33:00,
2013-05-25 04:48:00,73.8,71.0,30.05,NE,38,0.0,0.0,90,0.00,,,0.00,0,weatherlink.com 1.10,2013-05-25 08:48:00,
2013-05-25 05:03:00,73.5,71.0,30.06,NE,38,0.0,0.0,91,0.00,,,0.00,0,weatherlink.com 1.10,2013-05-25 09:03:00,
2013-05-25 05:18:00,73.3,71.0,30.06,NE,38,0.0,0.0,91,0.00,,,0.00,0,weatherlink.com 1.10,2013-05-25 09:18:00,
2013-05-25 05:33:00,73.7,72.0,30.06,East,80,2.0,3.0,93,0.00,,,0.00,0,weatherlink.com 1.10,2013-05-25 09:33:00,
2013-05-25 05:48:00,74.9,71.0,30.06,ENE,76,0.0,9.0,86,0.00,,,0.00,0,weatherlink.com 1.10,2013-05-25 09:48:00,
2013-05-25 06:03:00,75.2,70.0,30.07,NNE,17,0.0,2.0,83,0.00,,,0.00,0,weatherlink.com 1.10,2013-05-25 10:03:00,
2013-05-25 06:18:00,74.9,69.0,30.07,NNE,23,0.0,1.0,83,0.00,,,0.00,0,weatherlink.com 1.10,2013-05-25 10:18:00,
2013-05-25 06:33:00,74.4,69.0,30.08,NNE,23,0.0,1.0,84,0.00,,,0.00,5,weatherlink.com 1.10,2013-05-25 10:33:00,
2013-05-25 06:48:00,74.3,69.0,30.08,NNE,23,0.0,2.0,84,0.00,,,0.00,11,weatherlink.com 1.10,2013-05-25 10:48:00,
2013-05-25 07:03:00,74.2,70.0,30.09,NNE,23,0.0,1.0,85,0.00,,,0.00,21,weatherlink.com 1.10,2013-05-25 11:03:00,
2013-05-25 07:18:00,74.6,70.0,30.09,NNE,23,0.0,1.0,86,0.00,,,0.00,32,weatherlink.com 1.10,2013-05-25 11:18:00,
2013-05-25 07:33:00,75.3,70.0,30.10,ENE,63,0.0,2.0,84,0.00,,,0.00,42,weatherlink.com 1.10,2013-05-25 11:33:00,
2013-05-25 07:48:00,76.9,69.0,30.10,East,89,2.0,3.0,76,0.00,,,0.00,74,weatherlink.com 1.10,2013-05-25 11:48:00,
2013-05-25 08:03:00,78.0,68.0,30.10,NNE,16,0.0,4.0,71,0.00,,,0.00,72,weatherlink.com 1.10,2013-05-25 12:03:00,
2013-05-25 08:18:00,78.9,68.0,30.11,NE,51,1.0,5.0,69,0.00,,,0.00,83,weatherlink.com 1.10,2013-05-25 12:18:00,
2013-05-25 08:33:00,80.0,68.0,30.11,ENE,65,1.0,5.0,66,0.00,,,0.00,91,weatherlink.com 1.10,2013-05-25 12:33:00,
2013-05-25 08:48:00,80.9,67.0,30.12,ENE,59,9.0,9.0,62,0.00,,,0.00,76,weatherlink.com 1.10,2013-05-25 12:48:00,
2013-05-25 09:03:00,81.2,67.0,30.12,ENE,69,1.0,7.0,62,0.00,,,0.00,109,weatherlink.com 1.10,2013-05-25 13:03:00,
2013-05-25 09:18:00,81.9,67.0,30.13,ENE,75,2.0,8.0,61,0.00,,,0.00,93,weatherlink.com 1.10,2013-05-25 13:18:00,
2013-05-25 09:33:00,82.2,67.0,30.13,NE,34,1.0,8.0,60,0.00,,,0.00,283,weatherlink.com 1.10,2013-05-25 13:33:00,
2013-05-25 09:48:00,82.4,66.0,30.14,NE,44,4.0,8.0,58,0.00,,,0.00,267,weatherlink.com 1.10,2013-05-25 13:48:00,
2013-05-25 10:03:00,83.1,66.0,30.15,NE,55,1.0,11.0,57,0.00,,,0.00,610,weatherlink.com 1.10,2013-05-25 14:03:00,
2013-05-25 10:18:00,83.4,67.0,30.15,NNE,19,0.0,8.0,57,0.00,,,0.00,255,weatherlink.com 1.10,2013-05-25 14:18:00,
2013-05-25 10:33:00,83.7,67.0,30.15,NE,42,3.0,8.0,58,0.00,,,0.00,682,weatherlink.com 1.10,2013-05-25 14:33:00,
2013-05-25 10:48:00,83.9,67.0,30.15,ENE,77,3.0,6.0,58,0.00,,,0.00,548,weatherlink.com 1.10,2013-05-25 14:48:00,
2013-05-25 11:03:00,84.2,67.0,30.16,NE,40,3.0,7.0,57,0.00,,,0.00,165,weatherlink.com 1.10,2013-05-25 15:03:00,
2013-05-25 11:18:00,84.1,68.0,30.16,NNW,330,6.0,9.0,58,0.00,,,0.00,195,weatherlink.com 1.10,2013-05-25 15:18:00,
2013-05-25 11:33:00,83.8,68.0,30.16,ENE,62,3.0,11.0,59,0.00,,,0.00,253,weatherlink.com 1.10,2013-05-25 15:33:00,
2013-05-25 11:48:00,83.0,68.0,30.16,South,184,1.0,8.0,60,0.00,,,0.00,183,weatherlink.com 1.10,2013-05-25 15:48:00,
2013-05-25 12:03:00,80.3,68.0,30.16,ENE,65,4.0,9.0,66,0.00,,,0.00,283,weatherlink.com 1.10,2013-05-25 16:03:00,
2013-05-25 12:21:00,80.2,69.0,30.16,ENE,72,0.0,8.0,68,0.01,,,0.01,847,weatherlink.com 1.10,2013-05-25 16:21:00,
2013-05-25 12:34:00,81.4,69.0,30.16,ENE,57,3.0,9.0,67,0.01,,,0.01,1007,weatherlink.com 1.10,2013-05-25 16:34:00,
2013-05-25 12:49:00,83.2,68.0,30.16,NNE,28,1.0,8.0,61,0.01,,,0.01,970,weatherlink.com 1.10,2013-05-25 16:49:00,
2013-05-25 13:04:00,82.7,70.0,30.16,NNW,343,0.0,6.0,65,0.01,,,0.01,220,weatherlink.com 1.10,2013-05-25 17:04:00,
2013-05-25 13:19:00,80.2,70.0,30.16,SE,125,2.0,7.0,71,0.00,,,0.01,991,weatherlink.com 1.10,2013-05-25 17:19:00,
2013-05-25 13:34:00,79.5,69.0,30.16,East,79,2.0,9.0,71,0.00,,,0.01,216,weatherlink.com 1.10,2013-05-25 17:34:00,
2013-05-25 13:49:00,81.8,69.0,30.16,NNE,32,2.0,8.0,66,0.00,,,0.01,1118,weatherlink.com 1.10,2013-05-25 17:49:00,
2013-05-25 14:04:00,83.1,71.0,30.15,SE,138,0.0,6.0,66,0.00,,,0.01,1051,weatherlink.com 1.10,2013-05-25 18:04:00,
2013-05-25 14:19:00,83.7,69.0,30.15,ENE,57,3.0,7.0,61,0.00,,,0.01,243,weatherlink.com 1.10,2013-05-25 18:19:00,
2013-05-25 14:34:00,83.6,68.0,30.14,North,5,3.0,9.0,60,0.00,,,0.01,348,weatherlink.com 1.10,2013-05-25 18:34:00,
2013-05-25 14:49:00,85.0,66.0,30.14,NNE,19,3.0,11.0,54,0.00,,,0.01,884,weatherlink.com 1.10,2013-05-25 18:49:00,
2013-05-25 15:04:00,84.4,66.0,30.14,NNE,24,3.0,7.0,55,0.00,,,0.01,452,weatherlink.com 1.10,2013-05-25 19:04:00,
2013-05-25 15:19:00,84.6,67.0,30.14,SSE,159,2.0,11.0,56,0.00,,,0.01,1018,weatherlink.com 1.10,2013-05-25 19:19:00,
2013-05-25 15:34:00,84.9,66.0,30.14,NE,44,3.0,11.0,54,0.00,,,0.01,181,weatherlink.com 1.10,2013-05-25 19:34:00,
2013-05-25 15:49:00,84.5,67.0,30.13,WNW,300,3.0,8.0,55,0.00,,,0.01,828,weatherlink.com 1.10,2013-05-25 19:49:00,
2013-05-25 16:04:00,83.6,66.0,30.13,NE,56,2.0,10.0,56,0.00,,,0.01,269,weatherlink.com 1.10,2013-05-25 20:04:00,
2013-05-25 16:19:00,83.4,67.0,30.12,NNE,33,1.0,8.0,58,0.00,,,0.01,158,weatherlink.com 1.10,2013-05-25 20:19:00,
2013-05-25 16:34:00,83.4,67.0,30.12,ENE,75,1.0,6.0,59,0.00,,,0.01,589,weatherlink.com 1.10,2013-05-25 20:34:00,
2013-05-25 16:49:00,83.3,68.0,30.12,NE,35,1.0,7.0,60,0.00,,,0.01,134,weatherlink.com 1.10,2013-05-25 20:49:00,
2013-05-25 17:04:00,82.6,67.0,30.12,NNE,32,3.0,8.0,59,0.00,,,0.01,137,weatherlink.com 1.10,2013-05-25 21:04:00,
2013-05-25 17:19:00,83.1,67.0,30.12,NE,44,6.0,8.0,59,0.00,,,0.01,279,weatherlink.com 1.10,2013-05-25 21:19:00,
2013-05-25 17:34:00,81.9,68.0,30.12,East,87,2.0,12.0,62,0.00,,,0.01,86,weatherlink.com 1.10,2013-05-25 21:34:00,
2013-05-25 17:49:00,81.2,68.0,30.12,ENE,73,4.0,10.0,65,0.00,,,0.01,162,weatherlink.com 1.10,2013-05-25 21:49:00,
2013-05-25 18:04:00,81.3,68.0,30.12,NNE,19,2.0,9.0,64,0.00,,,0.01,67,weatherlink.com 1.10,2013-05-25 22:04:00,
2013-05-25 18:19:00,80.6,67.0,30.12,ENE,61,1.0,7.0,63,0.00,,,0.01,58,weatherlink.com 1.10,2013-05-25 22:19:00,
2013-05-25 18:34:00,80.5,67.0,30.12,East,84,5.0,7.0,63,0.00,,,0.01,125,weatherlink.com 1.10,2013-05-25 22:34:00,
2013-05-25 18:49:00,80.1,67.0,30.12,North,10,1.0,8.0,65,0.00,,,0.01,70,weatherlink.com 1.10,2013-05-25 22:49:00,
2013-05-25 19:04:00,79.5,68.0,30.13,NE,39,0.0,6.0,67,0.00,,,0.01,69,weatherlink.com 1.10,2013-05-25 23:04:00,
2013-05-25 19:19:00,79.3,67.0,30.12,NE,42,1.0,8.0,67,0.00,,,0.01,62,weatherlink.com 1.10,2013-05-25 23:19:00,
2013-05-25 19:34:00,78.8,67.0,30.12,East,94,1.0,7.0,68,0.00,,,0.01,35,weatherlink.com 1.10,2013-05-25 23:34:00,
2013-05-25 19:49:00,78.3,67.0,30.13,NE,39,0.0,7.0,69,0.00,,,0.01,14,weatherlink.com 1.10,2013-05-25 23:49:00,
2013-05-25 20:04:00,77.8,68.0,30.13,NNE,24,0.0,9.0,71,0.00,,,0.01,5,weatherlink.com 1.10,2013-05-26 00:04:00,
2013-05-25 20:19:00,77.4,67.0,30.14,North,5,2.0,5.0,71,0.00,,,0.01,0,weatherlink.com 1.10,2013-05-26 00:19:00,
2013-05-25 20:34:00,77.1,67.0,30.14,North,11,0.0,7.0,72,0.00,,,0.01,0,weatherlink.com 1.10,2013-05-26 00:34:00,
2013-05-25 20:49:00,76.6,67.0,30.15,NNW,334,4.0,5.0,73,0.00,,,0.01,0,weatherlink.com 1.10,2013-05-26 00:49:00,
2013-05-25 21:04:00,76.4,67.0,30.15,ENE,64,0.0,4.0,73,0.00,,,0.01,0,weatherlink.com 1.10,2013-05-26 01:04:00,
2013-05-25 21:19:00,76.2,67.0,30.15,NE,40,0.0,6.0,73,0.00,,,0.01,0,weatherlink.com 1.10,2013-05-26 01:19:00,
2013-05-25 21:34:00,76.0,67.0,30.15,East,84,0.0,4.0,73,0.00,,,0.01,0,weatherlink.com 1.10,2013-05-26 01:34:00,
2013-05-25 21:49:00,75.7,67.0,30.15,East,81,0.0,2.0,74,0.00,,,0.01,0,weatherlink.com 1.10,2013-05-26 01:49:00,
2013-05-25 22:04:00,75.4,67.0,30.16,SE,140,0.0,4.0,74,0.00,,,0.01,0,weatherlink.com 1.10,2013-05-26 02:04:00,
2013-05-25 22:19:00,75.1,66.0,30.16,NNE,17,0.0,4.0,74,0.00,,,0.01,0,weatherlink.com 1.10,2013-05-26 02:19:00,
2013-05-25 22:34:00,75.1,66.0,30.17,North,9,3.0,3.0,73,0.00,,,0.01,0,weatherlink.com 1.10,2013-05-26 02:34:00,
2013-05-25 22:49:00,75.0,66.0,30.17,ENE,67,0.0,4.0,73,0.00,,,0.01,0,weatherlink.com 1.10,2013-05-26 02:49:00,
2013-05-25 23:04:00,74.8,66.0,30.18,NE,44,0.0,2.0,73,0.00,,,0.01,0,weatherlink.com 1.10,2013-05-26 03:04:00,
2013-05-25 23:19:00,74.4,66.0,30.18,NE,44,0.0,1.0,74,0.00,,,0.01,0,weatherlink.com 1.10,2013-05-26 03:19:00,
2013-05-25 23:34:00,74.0,65.0,30.18,NE,50,1.0,2.0,74,0.00,,,0.01,0,weatherlink.com 1.10,2013-05-26 03:34:00,
2013-05-25 23:49:00,73.7,65.0,30.17,NE,50,0.0,1.0,75,0.00,,,0.01,0,weatherlink.com 1.10,2013-05-26 03:49:00,